WetterOnline ( https://www.wetteronline.de )

Wetter aktuell Essen

Aktuelles Wetter: Essen (161m)

6-stündlich | Neueste Meldungen
Ortszeit Temperatur Wetter
Sa, 19.06. 2:00 22.7° C wolkenlos
Fr, 18.06. 20:00 29.7° C wolkenlos
Fr, 18.06. 14:00 30.4° C leicht bewölkt
Fr, 18.06. 8:00 23.0° C wolkenlos
Fr, 18.06. 2:00 23.3° C wolkenlos
Do, 17.06. 20:00 30.1° C wolkenlos
Do, 17.06. 14:00 30.9° C wolkenlos
Do, 17.06. 8:00 24.1° C wolkenlos
Ortszeit Temperatur Wetter
Sa, 19.06. 6:00 19.9° C leicht bewölkt
Sa, 19.06. 5:50 19.9° C leicht bewölkt
Sa, 19.06. 5:40 20.0° C leicht bewölkt
Sa, 19.06. 5:30 20.4° C wolkig
Sa, 19.06. 5:20 20.4° C wolkig
Sa, 19.06. 5:10 20.5° C wolkig
Sa, 19.06. 5:00 20.2° C leicht bewölkt
Sa, 19.06. 4:30 20.7° C wolkenlos
Sa, 19.06. 4:00 21.1° C wolkenlos
Sa, 19.06. 3:30 21.5° C wolkenlos
Sa, 19.06. 3:00 21.7° C wolkenlos
Sa, 19.06. 2:30 22.6° C wolkenlos
Ortszeit Relative Feuchte Sichtweite
Sa, 19.06. 2:00 70% 50 km
Fr, 18.06. 20:00 41% 45 km
Fr, 18.06. 14:00 41% 40 km
Fr, 18.06. 8:00 79% 28 km
Fr, 18.06. 2:00 69% 45 km
Do, 17.06. 20:00 46% 45 km
Do, 17.06. 14:00 41% 35 km
Do, 17.06. 8:00 59% 50 km
Ortszeit Relative Feuchte Sichtweite
Sa, 19.06. 6:00 77% >70 km
Sa, 19.06. 5:50 77% -
Sa, 19.06. 5:40 77% -
Sa, 19.06. 5:30 75% >70 km
Sa, 19.06. 5:20 75% -
Sa, 19.06. 5:10 75% -
Sa, 19.06. 5:00 77% 60 km
Sa, 19.06. 4:30 76% 55 km
Sa, 19.06. 4:00 73% 60 km
Sa, 19.06. 3:30 71% 65 km
Sa, 19.06. 3:00 70% 60 km
Sa, 19.06. 2:30 66% 65 km
Ortszeit Niederschlagsmenge Niederschlagsart
Sa, 19.06. 2:00 0.0 l/m2 in 6 Std. -
Fr, 18.06. 20:00 0.0 l/m2 in 12 Std. -
Fr, 18.06. 14:00 0.0 l/m2 in 6 Std. -
Fr, 18.06. 8:00 0.0 l/m2 in 12 Std. -
Fr, 18.06. 2:00 0.0 l/m2 in 6 Std. -
Do, 17.06. 20:00 0.0 l/m2 in 12 Std. -
Do, 17.06. 14:00 0.0 l/m2 in 6 Std. -
Do, 17.06. 8:00 0.0 l/m2 in 12 Std. -
Ortszeit Niederschlagsmenge Niederschlagsart
Sa, 19.06. 6:00 0.0 l/m2 in 1 Std. -
Sa, 19.06. 5:50 keine Meldung -
Sa, 19.06. 5:40 keine Meldung -
Sa, 19.06. 5:30 0.0 l/m2 in 1 Std. -
Sa, 19.06. 5:20 keine Meldung -
Sa, 19.06. 5:10 keine Meldung -
Sa, 19.06. 5:00 0.0 l/m2 in 1 Std. -
Sa, 19.06. 4:30 0.0 l/m2 in 1 Std. -
Sa, 19.06. 4:00 0.0 l/m2 in 1 Std. -
Sa, 19.06. 3:30 0.0 l/m2 in 1 Std. -
Sa, 19.06. 3:00 0.0 l/m2 in 1 Std. -
Sa, 19.06. 2:30 0.0 l/m2 in 1 Std. -
Ortszeit Stärke Spitze Richtung
km/h Bft. km/h Grad Sektor
Sa, 19.06. 2:00 7 2 29 230° SW
Fr, 18.06. 20:00 18 3 36 170° S
Fr, 18.06. 14:00 7 2 18 170° S
Fr, 18.06. 8:00 11 2 29 110° O
Fr, 18.06. 2:00 15 3 31 40° NO
Do, 17.06. 20:00 7 2 29 300° NW
Do, 17.06. 14:00 15 3 30 170° S
Do, 17.06. 8:00 15 3 24 150° SO
Ortszeit Stärke Spitze Richtung
km/h Bft. km/h Grad Sektor
Sa, 19.06. 6:00 11 2 22 220° SW
Sa, 19.06. 5:50 11 2 - 220° SW
Sa, 19.06. 5:40 11 2 - 220° SW
Sa, 19.06. 5:30 14 3 22 230° SW
Sa, 19.06. 5:20 14 3 - 230° SW
Sa, 19.06. 5:10 13 3 - 220° SW
Sa, 19.06. 5:00 9 2 17 210° SW
Sa, 19.06. 4:30 7 2 14 220° SW
Sa, 19.06. 4:00 11 2 18 220° SW
Sa, 19.06. 3:30 4 1 7 180° S
Sa, 19.06. 3:00 7 2 18 210° SW
Sa, 19.06. 2:30 11 2 18 240° SW
Ortszeit Untergrenze Bedeckung Gattung
total tief tief mittel hoch
Sa, 19.06. 2:00 - 0/8 0/8 - - -
Fr, 18.06. 20:00 3600 m 0/8 0/8 - - -
Fr, 18.06. 14:00 3300 m 5/8 2/8 - - -
Fr, 18.06. 8:00 - 0/8 0/8 - - -
Fr, 18.06. 2:00 - 0/8 0/8 - - -
Do, 17.06. 20:00 - 0/8 0/8 - - -
Do, 17.06. 14:00 - 0/8 0/8 - - -
Do, 17.06. 8:00 - 0/8 0/8 - - -
Ortszeit Bedeckungsgrad in Achtel und Wolkenuntergrenze
Sa, 19.06. 6:00 3(9000m)
Sa, 19.06. 5:50 3(9000m)
Sa, 19.06. 5:40 5(9000m)
Sa, 19.06. 5:30 7(9000m)
Sa, 19.06. 5:20 7(9000m)
Sa, 19.06. 5:10 7(9000m)
Sa, 19.06. 5:00 4(9000m)
Sa, 19.06. 4:30 keine Wolken
Sa, 19.06. 4:00 keine Wolken
Sa, 19.06. 3:30 keine Wolken
Sa, 19.06. 3:00 keine Wolken
Sa, 19.06. 2:30 keine Wolken
Ortszeit Luftdruck NN (hPa) Tendenz (hPa in 3 Std.)
Sa, 19.06. 2:00 1013 + 1,4
Fr, 18.06. 20:00 1010 - 0,6
Fr, 18.06. 14:00 1012 - 0,9
Fr, 18.06. 8:00 1013 + 0,4
Fr, 18.06. 2:00 1013 + 0,6
Do, 17.06. 20:00 1011 + 0,5
Do, 17.06. 14:00 1010 - 0,4
Do, 17.06. 8:00 1011 + 0,3
Ortszeit Luftdruck NN (hPa) Tendenz (hPa in 3 Std.)
Sa, 19.06. 6:00 1014 + 0,5
Sa, 19.06. 5:50 1014 keine Meldung
Sa, 19.06. 5:40 1014 keine Meldung
Sa, 19.06. 5:30 1014 + 0,3
Sa, 19.06. 5:20 1014 keine Meldung
Sa, 19.06. 5:10 1014 keine Meldung
Sa, 19.06. 5:00 1014 + 0,5
Sa, 19.06. 4:30 1014 + 0,6
Sa, 19.06. 4:00 1013 + 0,7
Sa, 19.06. 3:30 1013 + 0,6
Sa, 19.06. 3:00 1013 + 0,9
Sa, 19.06. 2:30 1013 + 1,5
Ortszeit Schneehöhe (cm)
Sa, 19.06. 2:00 -
Fr, 18.06. 20:00 -
Fr, 18.06. 14:00 -
Fr, 18.06. 8:00 -
Fr, 18.06. 2:00 -
Do, 17.06. 20:00 -
Do, 17.06. 14:00 -
Do, 17.06. 8:00 -
Ortszeit Schneehöhe (cm)
Sa, 19.06. 6:00 -
Sa, 19.06. 5:50 -
Sa, 19.06. 5:40 -
Sa, 19.06. 5:30 -
Sa, 19.06. 5:20 -
Sa, 19.06. 5:10 -
Sa, 19.06. 5:00 -
Sa, 19.06. 4:30 -
Sa, 19.06. 4:00 -
Sa, 19.06. 3:30 -
Sa, 19.06. 3:00 -
Sa, 19.06. 2:30 -
Link zu dieser Seite / Seite empfehlen

Das Wetter in ...